createdAt,value
2023-04-11T00:09:59.968Z,1012.46
2023-04-11T00:20:00.217Z,1012.43
2023-04-11T00:30:00.465Z,1012.13
2023-04-11T00:40:00.537Z,1011.99
2023-04-11T00:50:00.706Z,1012.36
2023-04-11T01:00:00.913Z,1012.54
2023-04-11T01:10:01.171Z,1012.68
2023-04-11T01:20:01.360Z,1012.34
2023-04-11T01:30:01.594Z,1012.04
2023-04-11T01:40:01.790Z,1011.65
2023-04-11T01:50:02.095Z,1011.67
2023-04-11T02:00:02.105Z,1011.71
2023-04-11T02:10:02.287Z,1011.66
2023-04-11T02:20:02.564Z,1011.72
2023-04-11T02:30:02.569Z,1011.49
2023-04-11T02:40:02.769Z,1011.46
2023-04-11T02:50:02.963Z,1011.65
2023-04-11T03:00:03.166Z,1011.32
2023-04-11T03:10:03.361Z,1011.19
2023-04-11T03:20:03.557Z,1011.26
2023-04-11T03:30:03.755Z,1011.33
2023-04-11T03:40:04.140Z,1011.46
2023-04-11T03:50:04.138Z,1011.63
2023-04-11T04:00:04.395Z,1011.72
2023-04-11T04:10:04.556Z,1011.70
2023-04-11T04:20:04.752Z,1011.67
2023-04-11T04:30:05.105Z,1011.74
2023-04-11T04:40:05.110Z,1012.04
2023-04-11T04:50:05.344Z,1011.88
2023-04-11T05:00:05.590Z,1011.96
2023-04-11T05:10:05.605Z,1012.04
2023-04-11T05:20:05.824Z,1012.37
2023-04-11T05:30:06.015Z,1012.49
2023-04-11T05:40:06.225Z,1012.61
2023-04-11T05:50:06.569Z,1012.70
2023-04-11T06:00:06.558Z,1012.96
2023-04-11T06:10:06.765Z,1012.92
2023-04-11T06:20:06.969Z,1013.15
2023-04-11T06:30:07.179Z,1013.48
2023-04-11T06:40:07.369Z,1013.47
2023-04-11T06:50:07.615Z,1013.35
2023-04-11T07:00:07.849Z,1013.37
2023-04-11T07:10:08.042Z,1013.61
2023-04-11T07:20:08.326Z,1013.73
2023-04-11T07:30:08.350Z,1013.64
2023-04-11T07:40:08.584Z,1013.79
2023-04-11T07:50:08.792Z,1013.67
2023-04-11T08:00:10.932Z,1013.72
2023-04-11T08:10:09.171Z,1013.76
2023-04-11T08:20:09.443Z,1013.84
2023-04-11T08:30:09.626Z,1013.90
2023-04-11T08:40:09.829Z,1014.12
2023-04-11T08:50:10.092Z,1014.46
2023-04-11T09:00:10.278Z,1014.76
2023-04-11T09:10:10.490Z,1014.78
2023-04-11T09:20:10.695Z,1015.06
2023-04-11T09:30:10.948Z,1015.03
2023-04-11T09:40:11.166Z,1015.26
2023-04-11T09:50:11.382Z,1015.14
2023-04-11T10:00:11.866Z,1015.29
2023-04-11T10:10:11.823Z,1015.30
2023-04-11T10:20:12.035Z,1015.27
2023-04-11T10:30:12.248Z,1015.44
2023-04-11T10:40:12.456Z,1015.38
2023-04-11T10:50:12.667Z,1015.71
2023-04-11T11:00:12.898Z,1015.79
2023-04-11T11:10:13.112Z,1015.62
2023-04-11T11:20:13.349Z,1015.84
2023-04-11T11:30:13.573Z,1015.52
2023-04-11T11:40:13.829Z,1015.61
2023-04-11T11:50:14.063Z,1015.40
2023-04-11T12:00:14.239Z,1015.34
2023-04-11T12:10:14.335Z,1015.21
2023-04-11T12:20:14.613Z,1015.18
2023-04-11T12:30:14.857Z,1015.16
2023-04-11T12:40:15.024Z,1015.28
2023-04-11T12:50:15.238Z,1015.43
2023-04-11T13:00:15.457Z,1015.37
2023-04-11T13:10:15.859Z,1015.58
2023-04-11T13:20:15.882Z,1015.66
2023-04-11T13:30:16.091Z,1015.46
2023-04-11T13:40:16.272Z,1015.25
2023-04-11T13:50:16.548Z,1015.28
2023-04-11T14:00:16.770Z,1015.21
2023-04-11T14:10:16.978Z,1015.12
2023-04-11T14:20:17.182Z,1015.15
2023-04-11T14:30:17.389Z,1015.16
2023-04-11T14:40:17.590Z,1015.17
2023-04-11T14:50:17.805Z,1015.20
2023-04-11T15:00:17.944Z,1015.17
2023-04-11T15:10:18.148Z,1015.05
2023-04-11T15:20:18.342Z,1014.79
2023-04-11T15:30:18.549Z,1014.56
2023-04-11T15:40:18.757Z,1014.33
2023-04-11T15:50:18.951Z,1014.15
2023-04-11T16:00:19.168Z,1014.21
2023-04-11T16:10:19.383Z,1014.13
2023-04-11T16:20:19.655Z,1013.90
2023-04-11T16:30:19.851Z,1013.92
2023-04-11T16:40:20.061Z,1013.92
2023-04-11T16:50:20.246Z,1013.72
2023-04-11T17:00:20.494Z,1013.65
2023-04-11T17:10:20.698Z,1013.65
2023-04-11T17:20:20.907Z,1013.68
2023-04-11T17:30:21.304Z,1013.61
2023-04-11T17:40:21.303Z,1013.52
2023-04-11T17:50:21.512Z,1013.50
2023-04-11T18:00:21.695Z,1013.64
2023-04-11T18:10:22.086Z,1013.56
2023-04-11T18:20:22.357Z,1013.47
2023-04-11T18:30:22.442Z,1013.45
2023-04-11T18:40:22.488Z,1013.50
2023-04-11T18:50:22.756Z,1013.48
2023-04-11T19:00:23.814Z,1013.50
2023-04-11T19:10:23.114Z,1013.47
2023-04-11T19:20:23.572Z,1013.43
2023-04-11T19:30:23.701Z,1013.43
2023-04-11T19:40:24.050Z,1013.35
2023-04-11T19:50:24.000Z,1013.22
2023-04-11T20:00:25.446Z,1013.08
2023-04-11T20:10:24.472Z,1012.88
2023-04-11T20:20:25.242Z,1012.68
2023-04-11T20:30:24.539Z,1012.69
2023-04-11T20:40:32.669Z,1012.70
2023-04-11T20:50:24.874Z,1012.72
2023-04-11T21:00:25.069Z,1012.61
2023-04-11T21:10:25.260Z,1012.67
2023-04-11T21:20:25.478Z,1012.46
2023-04-11T21:30:25.741Z,1012.41
2023-04-11T21:40:25.890Z,1012.30
2023-04-11T21:50:26.114Z,1012.25
2023-04-11T22:00:26.321Z,1012.12
2023-04-11T22:10:32.360Z,1012.03
2023-04-11T22:20:27.788Z,1012.01
2023-04-11T22:30:26.996Z,1011.93
2023-04-11T22:40:27.219Z,1011.72
2023-04-11T22:50:27.433Z,1011.65
2023-04-11T23:00:27.652Z,1011.60
2023-04-11T23:10:27.852Z,1011.61
2023-04-11T23:20:28.057Z,1011.46
2023-04-11T23:30:28.264Z,1011.25
2023-04-11T23:40:28.469Z,1011.21
2023-04-11T23:50:28.702Z,1011.16
